Time;durP1;ratioP1;P1;durP2;ratioP2;P2;SDS_P1;SDS_P2;PMS_P1;PMS_P2;Temp;Humidity;BMP_temperature;BMP_pressure;BME280_temperature;BME280_humidity;BME280_pressure;Samples;Min_cycle;Max_cycle;Signal;HPM_P1;HPM_P2
2023/09/29 00:00:55;;;;;;;2.10;1.13;;;19.10;78.00;;;;;;5067241;28;20048;-66
2023/09/29 00:03:21;;;;;;;3.20;1.25;;;19.10;77.90;;;;;;5067553;28;20044;-66
2023/09/29 00:05:48;;;;;;;3.55;1.27;;;19.10;78.00;;;;;;5062924;28;20591;-66
2023/09/29 00:08:17;;;;;;;0.85;0.80;;;19.10;78.00;;;;;;5046976;28;20403;-66
2023/09/29 00:10:45;;;;;;;5.05;2.17;;;19.10;78.10;;;;;;5066384;28;20454;-66
2023/09/29 00:13:11;;;;;;;1.05;0.98;;;19.10;78.10;;;;;;5049465;28;20462;-66
2023/09/29 00:15:38;;;;;;;2.00;0.75;;;19.10;78.10;;;;;;5061884;28;20077;-66
2023/09/29 00:18:05;;;;;;;3.30;1.42;;;19.10;78.10;;;;;;5046406;28;20025;-66
2023/09/29 00:20:31;;;;;;;2.10;1.42;;;19.10;78.10;;;;;;5064975;28;20032;-63
2023/09/29 00:22:58;;;;;;;3.63;1.88;;;19.10;78.00;;;;;;5061426;28;20037;-63
2023/09/29 00:25:24;;;;;;;2.13;1.33;;;19.10;78.10;;;;;;5067797;28;20064;-66
2023/09/29 00:27:50;;;;;;;2.10;1.20;;;19.00;78.10;;;;;;5050505;28;20099;-66
2023/09/29 00:30:17;;;;;;;3.40;1.02;;;19.10;78.20;;;;;;5065818;28;20033;-66
2023/09/29 00:32:48;;;;;;;3.20;1.38;;;19.10;78.20;;;;;;5068995;28;20036;-66
2023/09/29 00:35:37;;;;;;;2.78;1.00;;;19.10;78.20;;;;;;5066055;28;20085;-66
2023/09/29 00:38:01;;;;;;;2.75;1.17;;;19.10;78.20;;;;;;5065054;28;20035;-66
2023/09/29 00:40:28;;;;;;;1.70;1.10;;;19.10;78.30;;;;;;5066650;28;20040;-66
2023/09/29 00:42:55;;;;;;;1.33;0.82;;;19.10;78.30;;;;;;5062385;28;20085;-66
2023/09/29 00:45:28;;;;;;;1.88;1.15;;;19.10;78.30;;;;;;5067850;28;20044;-66
2023/09/29 00:47:58;;;;;;;1.55;1.05;;;19.10;78.30;;;;;;5064491;28;20055;-62
2023/09/29 00:50:29;;;;;;;3.70;1.10;;;19.10;78.30;;;;;;5060746;28;20441;-63
2023/09/29 00:52:58;;;;;;;3.67;1.70;;;19.10;78.30;;;;;;5060730;28;20028;-62
2023/09/29 00:55:28;;;;;;;2.70;1.35;;;19.10;78.30;;;;;;5060455;28;20028;-63
2023/09/29 00:57:57;;;;;;;2.05;1.20;;;19.00;78.40;;;;;;5058774;28;20044;-62
2023/09/29 01:00:32;;;;;;;1.50;1.30;;;19.00;78.60;;;;;;5067665;28;20103;-63
2023/09/29 01:03:06;;;;;;;1.98;1.48;;;19.00;78.60;;;;;;5066131;28;20116;-62
2023/09/29 01:05:39;;;;;;;2.50;1.42;;;19.00;78.60;;;;;;5061548;28;20517;-62
2023/09/29 01:08:08;;;;;;;2.97;1.77;;;19.00;78.70;;;;;;5066019;28;20494;-62
2023/09/29 01:10:36;;;;;;;1.77;0.82;;;19.00;78.70;;;;;;5063054;28;20540;-62
2023/09/29 01:13:03;;;;;;;1.38;1.27;;;19.00;78.70;;;;;;5058074;28;20036;-63
2023/09/29 01:15:28;;;;;;;2.53;1.25;;;19.00;78.80;;;;;;5067981;28;20062;-66
2023/09/29 01:17:54;;;;;;;3.20;1.23;;;19.00;78.80;;;;;;5064346;28;20566;-66
2023/09/29 01:20:29;;;;;;;2.30;1.50;;;19.00;78.80;;;;;;5067483;28;20029;-62
2023/09/29 01:23:07;;;;;;;1.58;1.48;;;19.00;78.90;;;;;;5063077;28;20025;-62
2023/09/29 01:25:34;;;;;;;2.13;1.27;;;19.00;79.00;;;;;;5063480;28;20029;-63
2023/09/29 01:28:01;;;;;;;4.38;1.40;;;19.00;79.10;;;;;;5061770;28;20492;-63
2023/09/29 01:30:27;;;;;;;1.70;1.20;;;19.00;79.10;;;;;;5067811;28;20375;-63
2023/09/29 01:32:56;;;;;;;2.05;1.13;;;19.00;79.20;;;;;;5048398;28;20029;-66
2023/09/29 01:35:24;;;;;;;4.18;1.42;;;19.00;79.20;;;;;;5064647;28;20487;-66
2023/09/29 01:37:53;;;;;;;1.52;1.05;;;19.00;79.20;;;;;;5068385;28;20078;-66
2023/09/29 01:40:23;;;;;;;1.55;1.33;;;19.00;79.20;;;;;;5064840;28;20079;-66
2023/09/29 01:42:50;;;;;;;4.45;1.60;;;19.00;79.20;;;;;;5068730;28;20040;-66
2023/09/29 01:45:17;;;;;;;1.48;1.05;;;19.10;79.20;;;;;;5066186;28;20048;-66
2023/09/29 01:47:45;;;;;;;3.80;1.40;;;19.10;79.30;;;;;;5039540;28;20032;-66
2023/09/29 01:50:13;;;;;;;4.10;1.15;;;19.10;79.20;;;;;;5066309;28;20060;-66
2023/09/29 01:52:39;;;;;;;2.72;1.25;;;19.10;79.20;;;;;;5066008;28;20102;-66
2023/09/29 01:55:16;;;;;;;2.30;0.98;;;19.10;79.20;;;;;;5066285;28;20401;-66
2023/09/29 01:57:45;;;;;;;5.40;1.60;;;19.20;79.30;;;;;;5064943;28;20062;-66
2023/09/29 02:00:14;;;;;;;2.03;1.67;;;19.20;79.30;;;;;;5065412;28;20100;-63
2023/09/29 02:02:41;;;;;;;1.27;1.00;;;19.10;79.30;;;;;;5065342;28;20225;-63
2023/09/29 02:05:08;;;;;;;2.67;1.67;;;19.20;79.30;;;;;;5066799;28;20040;-63
2023/09/29 02:07:36;;;;;;;2.25;1.65;;;19.20;79.30;;;;;;5066300;28;20553;-62
2023/09/29 02:10:02;;;;;;;4.22;1.88;;;19.20;79.40;;;;;;5062749;28;20033;-63
2023/09/29 02:12:30;;;;;;;3.85;2.13;;;19.20;79.50;;;;;;5069621;28;20369;-66
2023/09/29 02:14:56;;;;;;;6.63;2.03;;;19.20;79.50;;;;;;5071240;28;20078;-66
2023/09/29 02:17:21;;;;;;;2.13;1.63;;;19.20;79.50;;;;;;5070753;28;20395;-66
2023/09/29 02:19:47;;;;;;;2.83;1.48;;;19.20;79.50;;;;;;5052648;28;20031;-63
2023/09/29 02:22:16;;;;;;;2.00;1.08;;;19.20;79.60;;;;;;5068461;28;20151;-63
2023/09/29 02:24:43;;;;;;;2.08;1.30;;;19.20;79.60;;;;;;5067974;28;20107;-63
2023/09/29 02:27:09;;;;;;;2.15;1.38;;;19.30;79.60;;;;;;5066161;28;20036;-63
2023/09/29 02:29:35;;;;;;;1.67;1.48;;;19.30;79.50;;;;;;5070709;28;20393;-63
2023/09/29 02:32:01;;;;;;;2.25;1.27;;;19.30;79.50;;;;;;5066542;28;20028;-62
2023/09/29 02:34:28;;;;;;;3.35;1.45;;;19.30;79.50;;;;;;5064044;28;20041;-65
2023/09/29 02:36:54;;;;;;;1.63;1.00;;;19.40;79.50;;;;;;5067962;28;20046;-63
2023/09/29 02:39:20;;;;;;;2.97;1.50;;;19.30;79.50;;;;;;5068643;28;20033;-63
2023/09/29 02:41:46;;;;;;;1.55;1.10;;;19.30;79.50;;;;;;5068834;28;20048;-62
2023/09/29 02:44:12;;;;;;;2.75;1.20;;;19.30;79.50;;;;;;5070561;28;20038;-62
2023/09/29 02:46:37;;;;;;;4.28;1.85;;;19.40;79.60;;;;;;5063003;28;20032;-63
2023/09/29 02:49:03;;;;;;;1.90;1.10;;;19.30;79.60;;;;;;5069895;28;20135;-62
2023/09/29 02:51:29;;;;;;;2.17;1.45;;;19.30;79.60;;;;;;5070197;28;20102;-63
2023/09/29 02:53:55;;;;;;;2.67;1.33;;;19.30;79.70;;;;;;5049758;28;20029;-66
2023/09/29 02:56:23;;;;;;;1.83;1.20;;;19.40;79.70;;;;;;5067032;28;20032;-66
2023/09/29 02:58:52;;;;;;;3.00;1.38;;;19.30;79.70;;;;;;5069130;28;20060;-66
2023/09/29 03:01:19;;;;;;;1.95;1.75;;;19.30;79.70;;;;;;5067178;28;20130;-66
2023/09/29 03:03:45;;;;;;;3.35;1.27;;;19.20;79.80;;;;;;5068124;28;20033;-66
2023/09/29 03:06:18;;;;;;;2.88;1.45;;;19.20;80.00;;;;;;5069779;28;20032;-66
2023/09/29 03:08:44;;;;;;;9.13;1.85;;;19.20;80.00;;;;;;5066782;28;20025;-66
2023/09/29 03:11:12;;;;;;;2.13;1.30;;;19.10;80.00;;;;;;5061422;28;20044;-66
2023/09/29 03:13:40;;;;;;;3.35;1.33;;;19.20;80.00;;;;;;5058651;28;20040;-63
2023/09/29 03:16:07;;;;;;;9.35;1.65;;;19.10;80.00;;;;;;5062857;28;20025;-66
2023/09/29 03:18:35;;;;;;;3.83;1.77;;;19.10;80.00;;;;;;5069883;28;20650;-66
2023/09/29 03:21:01;;;;;;;4.32;1.50;;;19.10;80.00;;;;;;5068959;28;20031;-66
2023/09/29 03:23:28;;;;;;;3.70;1.55;;;19.00;80.00;;;;;;5050932;28;20033;-66
2023/09/29 03:25:54;;;;;;;4.15;1.38;;;19.10;80.10;;;;;;5065235;28;20028;-66
2023/09/29 03:28:21;;;;;;;1.20;1.10;;;19.10;80.10;;;;;;5061452;28;20051;-63
2023/09/29 03:30:46;;;;;;;2.83;1.20;;;19.10;80.10;;;;;;5069058;28;20028;-63
2023/09/29 03:33:13;;;;;;;1.75;1.30;;;19.10;80.00;;;;;;5069375;28;20036;-66
2023/09/29 03:35:40;;;;;;;5.03;1.85;;;19.10;80.00;;;;;;5062040;28;20044;-66
2023/09/29 03:38:06;;;;;;;3.00;1.40;;;19.10;80.10;;;;;;5066816;28;20025;-67
2023/09/29 03:40:32;;;;;;;4.32;1.60;;;19.10;80.20;;;;;;5068862;28;20058;-66
2023/09/29 03:42:58;;;;;;;2.85;1.60;;;19.10;80.20;;;;;;5068018;28;20078;-66
2023/09/29 03:45:25;;;;;;;1.50;1.40;;;19.10;80.50;;;;;;5064762;28;20032;-66
2023/09/29 03:47:51;;;;;;;2.08;1.55;;;19.10;80.20;;;;;;5066661;28;20043;-66
2023/09/29 03:50:17;;;;;;;1.35;1.10;;;19.10;80.20;;;;;;5069486;28;20527;-63
2023/09/29 03:52:45;;;;;;;1.30;1.20;;;19.10;80.20;;;;;;5068539;28;20039;-66
2023/09/29 03:55:12;;;;;;;1.88;1.30;;;19.10;80.30;;;;;;5068208;28;20036;-66
2023/09/29 03:57:38;;;;;;;2.83;1.17;;;19.10;80.30;;;;;;5066047;28;20479;-66
2023/09/29 04:00:10;;;;;;;1.73;1.45;;;19.10;80.30;;;;;;5062400;28;20391;-63
2023/09/29 04:02:36;;;;;;;;;;;19.10;80.30;;;;;;5064319;28;20032;-62
2023/09/29 04:05:02;;;;;;;3.35;1.05;;;19.00;80.30;;;;;;5063469;28;19908;-65
2023/09/29 04:07:28;;;;;;;2.70;1.13;;;19.00;80.40;;;;;;5062298;28;20036;-66
2023/09/29 04:09:54;;;;;;;1.70;1.40;;;19.10;80.30;;;;;;5065589;28;20043;-66
2023/09/29 04:12:19;;;;;;;1.45;1.33;;;19.10;80.30;;;;;;5047754;28;20036;-66
2023/09/29 04:14:45;;;;;;;1.40;1.17;;;19.10;80.30;;;;;;5067102;28;20043;-66
2023/09/29 04:17:11;;;;;;;1.25;0.90;;;19.10;80.30;;;;;;5063856;28;20027;-62
2023/09/29 04:19:38;;;;;;;2.92;1.55;;;19.10;80.30;;;;;;5057697;28;20056;-66
2023/09/29 04:22:04;;;;;;;1.70;1.20;;;19.10;80.20;;;;;;5062190;28;20111;-66
2023/09/29 04:24:30;;;;;;;1.55;1.23;;;19.10;80.20;;;;;;5066603;28;20032;-66
2023/09/29 04:26:55;;;;;;;4.45;1.27;;;19.20;80.10;;;;;;5067475;28;20036;-63
2023/09/29 04:29:21;;;;;;;1.77;1.00;;;19.20;80.10;;;;;;5067056;28;20093;-63
2023/09/29 04:31:47;;;;;;;1.85;1.02;;;19.30;80.10;;;;;;5068717;28;20032;-62
2023/09/29 04:34:13;;;;;;;3.78;0.98;;;19.20;80.10;;;;;;5066723;28;20120;-62
2023/09/29 04:36:40;;;;;;;1.80;1.40;;;19.20;80.10;;;;;;5067314;28;20025;-63
2023/09/29 04:39:06;;;;;;;3.47;1.40;;;19.20;80.10;;;;;;5068003;28;20020;-63
2023/09/29 04:41:32;;;;;;;1.13;0.95;;;19.20;80.10;;;;;;5060758;28;20056;-62
2023/09/29 04:43:57;;;;;;;2.13;1.02;;;19.20;80.00;;;;;;5067137;28;20032;-63
2023/09/29 04:46:23;;;;;;;0.75;0.70;;;19.30;80.00;;;;;;5067864;28;20037;-63
2023/09/29 04:48:53;;;;;;;1.63;1.15;;;19.30;79.90;;;;;;5068056;28;20386;-62
2023/09/29 04:51:18;;;;;;;1.10;0.88;;;19.30;79.90;;;;;;5059493;28;20447;-63
2023/09/29 04:53:45;;;;;;;2.50;1.58;;;19.30;79.90;;;;;;5068243;28;20135;-63
2023/09/29 04:56:11;;;;;;;1.27;1.17;;;19.30;79.90;;;;;;5067491;28;20107;-63
2023/09/29 04:58:37;;;;;;;0.70;0.70;;;19.30;79.90;;;;;;5064962;28;20029;-63
2023/09/29 05:01:03;;;;;;;0.93;0.85;;;19.30;80.00;;;;;;5065385;28;20032;-66
2023/09/29 05:03:28;;;;;;;2.08;1.10;;;19.30;80.00;;;;;;5057554;28;20032;-66
2023/09/29 05:05:54;;;;;;;0.98;0.90;;;19.30;80.00;;;;;;5041548;28;20075;-66
2023/09/29 05:08:20;;;;;;;1.05;0.88;;;19.30;80.00;;;;;;5058612;28;20491;-66
2023/09/29 05:10:46;;;;;;;1.20;1.00;;;19.30;80.10;;;;;;5064660;28;20097;-66
2023/09/29 05:13:11;;;;;;;2.63;1.00;;;19.30;80.00;;;;;;5058383;28;20037;-67
2023/09/29 05:15:37;;;;;;;0.80;0.60;;;19.30;80.00;;;;;;5068524;28;20060;-66
2023/09/29 05:18:03;;;;;;;2.72;0.88;;;19.30;80.00;;;;;;5067484;28;20500;-66
2023/09/29 05:20:29;;;;;;;1.20;1.10;;;19.40;80.00;;;;;;5049634;28;20033;-63
2023/09/29 05:22:55;;;;;;;1.17;0.77;;;19.40;80.00;;;;;;5060591;28;20039;-63
2023/09/29 05:25:20;;;;;;;2.35;1.15;;;19.40;80.10;;;;;;5060139;28;20108;-66
2023/09/29 05:27:46;;;;;;;1.52;1.00;;;19.40;80.10;;;;;;5027072;28;20058;-66
2023/09/29 05:30:12;;;;;;;0.98;0.85;;;19.40;80.10;;;;;;5059461;28;20033;-66
2023/09/29 05:32:38;;;;;;;1.50;1.05;;;19.40;80.20;;;;;;5058494;28;20075;-66
2023/09/29 05:35:04;;;;;;;2.75;0.90;;;19.30;80.30;;;;;;5061205;28;20029;-66
2023/09/29 05:37:30;;;;;;;1.48;0.90;;;19.30;80.30;;;;;;5067907;28;20442;-62
2023/09/29 05:40:02;;;;;;;0.70;0.70;;;19.30;80.40;;;;;;5046890;28;20020;-63
2023/09/29 05:42:28;;;;;;;1.30;0.93;;;19.30;80.40;;;;;;5067320;28;20037;-63
2023/09/29 05:44:54;;;;;;;1.35;1.15;;;19.30;80.40;;;;;;5042276;28;20339;-63
2023/09/29 05:47:20;;;;;;;3.20;1.15;;;19.30;80.50;;;;;;5071299;28;20033;-63
2023/09/29 05:49:46;;;;;;;0.82;0.82;;;19.40;80.50;;;;;;5052855;28;20039;-63
2023/09/29 05:52:12;;;;;;;1.08;0.88;;;19.40;80.50;;;;;;5072008;28;20036;-63
2023/09/29 05:54:37;;;;;;;0.80;0.80;;;19.40;80.60;;;;;;5069774;28;20468;-63
2023/09/29 05:57:03;;;;;;;1.67;1.25;;;19.40;80.70;;;;;;5067574;28;20025;-62
2023/09/29 05:59:29;;;;;;;1.13;1.00;;;19.40;80.70;;;;;;5071515;28;20037;-63
2023/09/29 06:01:55;;;;;;;1.30;1.10;;;19.40;80.80;;;;;;5058223;28;20029;-66
2023/09/29 06:04:22;;;;;;;1.20;1.13;;;19.40;80.80;;;;;;5048905;28;20029;-66
2023/09/29 06:06:48;;;;;;;1.00;0.90;;;19.50;80.80;;;;;;5066132;28;20201;-66
2023/09/29 06:09:13;;;;;;;1.20;1.00;;;19.50;80.80;;;;;;5048198;28;20108;-64
2023/09/29 06:11:39;;;;;;;1.13;1.00;;;19.50;80.70;;;;;;5063953;28;20574;-63
2023/09/29 06:14:06;;;;;;;1.05;0.95;;;19.50;80.70;;;;;;5068444;28;20114;-63
2023/09/29 06:16:32;;;;;;;0.88;0.80;;;19.60;80.70;;;;;;5062861;28;20083;-66
2023/09/29 06:18:58;;;;;;;1.25;0.77;;;19.60;80.60;;;;;;5065850;28;20033;-66
2023/09/29 06:21:23;;;;;;;2.80;1.10;;;19.60;80.60;;;;;;5066283;28;20040;-66
2023/09/29 06:23:49;;;;;;;0.80;0.80;;;19.70;80.60;;;;;;5066734;28;20564;-66
2023/09/29 06:26:15;;;;;;;0.90;0.70;;;19.70;80.60;;;;;;5070824;28;20078;-66
2023/09/29 06:28:41;;;;;;;1.67;1.00;;;19.80;80.60;;;;;;5067565;28;20107;-62
2023/09/29 06:31:07;;;;;;;1.20;1.02;;;19.80;80.50;;;;;;5069449;28;20395;-62
2023/09/29 06:33:33;;;;;;;1.15;0.65;;;19.90;80.50;;;;;;5070721;28;20029;-63
2023/09/29 06:35:58;;;;;;;0.70;0.63;;;19.90;80.40;;;;;;5067966;28;20055;-63
2023/09/29 06:38:24;;;;;;;1.20;1.02;;;20.00;80.40;;;;;;5069409;28;20029;-63
2023/09/29 06:40:51;;;;;;;0.90;0.60;;;20.10;80.20;;;;;;5043019;28;20602;-62
2023/09/29 06:43:17;;;;;;;0.70;0.70;;;20.10;80.10;;;;;;5046377;28;20036;-66
2023/09/29 06:45:43;;;;;;;0.75;0.75;;;20.20;80.10;;;;;;5047027;28;20045;-66
2023/09/29 06:48:08;;;;;;;1.75;1.15;;;20.20;80.10;;;;;;5039902;28;20439;-66
2023/09/29 06:50:34;;;;;;;1.42;1.00;;;20.20;80.20;;;;;;5047884;28;20423;-66
2023/09/29 06:53:00;;;;;;;1.13;0.90;;;20.20;81.00;;;;;;5049186;28;20122;-66
2023/09/29 06:55:26;;;;;;;1.67;0.95;;;20.10;80.90;;;;;;5046715;28;20032;-66
2023/09/29 06:57:51;;;;;;;0.85;0.70;;;20.20;81.00;;;;;;5039912;28;20036;-66
2023/09/29 07:00:18;;;;;;;1.50;0.90;;;20.20;81.00;;;;;;5048496;28;20114;-66
2023/09/29 07:02:44;;;;;;;1.38;0.85;;;20.20;81.00;;;;;;5045375;28;20044;-66
2023/09/29 07:05:10;;;;;;;1.15;0.75;;;20.20;80.90;;;;;;5044452;28;20108;-66
2023/09/29 07:07:36;;;;;;;1.33;1.08;;;20.30;81.00;;;;;;5049080;28;20484;-66
2023/09/29 07:10:02;;;;;;;1.92;1.00;;;20.30;80.90;;;;;;5046459;28;20033;-68
2023/09/29 07:12:28;;;;;;;1.27;0.82;;;20.30;80.80;;;;;;5047382;28;20102;-67
2023/09/29 07:14:53;;;;;;;1.38;1.27;;;20.40;81.40;;;;;;5049029;28;20483;-68
2023/09/29 07:17:19;;;;;;;0.93;0.80;;;20.40;80.70;;;;;;5046532;28;20033;-67
2023/09/29 07:19:45;;;;;;;0.95;0.85;;;20.50;80.60;;;;;;5032989;28;20033;-67
2023/09/29 07:22:11;;;;;;;0.82;0.82;;;20.50;80.60;;;;;;5038172;28;20074;-67
2023/09/29 07:24:40;;;;;;;1.20;1.10;;;20.50;80.50;;;;;;5045026;28;20487;-68
2023/09/29 07:27:08;;;;;;;0.73;0.73;;;20.60;80.50;;;;;;5043366;28;20033;-68
2023/09/29 07:29:34;;;;;;;0.95;0.85;;;20.60;80.50;;;;;;5039302;28;20112;-69
2023/09/29 07:32:00;;;;;;;3.03;0.90;;;20.60;80.50;;;;;;5042902;28;20032;-64
2023/09/29 07:34:27;;;;;;;1.45;1.13;;;20.70;80.40;;;;;;5046356;28;20060;-67
2023/09/29 07:36:53;;;;;;;1.33;1.00;;;20.70;80.60;;;;;;5047288;28;20067;-68
2023/09/29 07:39:19;;;;;;;1.42;1.10;;;20.80;80.70;;;;;;5039767;28;20049;-65
2023/09/29 07:41:46;;;;;;;1.25;1.00;;;20.80;80.70;;;;;;5054606;28;20654;-65
2023/09/29 07:44:12;;;;;;;1.52;0.90;;;20.90;80.60;;;;;;5063542;28;20433;-66
2023/09/29 07:46:38;;;;;;;1.33;0.88;;;20.90;80.50;;;;;;5066294;28;20043;-67
2023/09/29 07:49:04;;;;;;;0.88;0.80;;;21.00;80.40;;;;;;5043049;28;20511;-67
2023/09/29 07:51:31;;;;;;;2.05;0.98;;;21.00;80.30;;;;;;5063689;28;20024;-67
2023/09/29 07:53:57;;;;;;;1.48;1.00;;;21.00;80.40;;;;;;5069047;28;20494;-65
2023/09/29 07:56:23;;;;;;;3.35;1.35;;;21.00;80.50;;;;;;5059648;28;20115;-66
2023/09/29 07:58:49;;;;;;;1.02;0.93;;;21.10;80.50;;;;;;5066885;28;20108;-65
2023/09/29 08:01:15;;;;;;;0.63;0.60;;;21.00;80.40;;;;;;5058925;28;20557;-68
2023/09/29 08:03:42;;;;;;;0.85;0.73;;;21.10;80.40;;;;;;5064910;28;20098;-68
2023/09/29 08:06:08;;;;;;;2.15;1.13;;;21.10;80.30;;;;;;5066963;28;20028;-68
2023/09/29 08:08:35;;;;;;;3.05;1.00;;;21.10;80.50;;;;;;5061726;28;20040;-68
2023/09/29 08:11:01;;;;;;;2.53;1.30;;;21.20;80.50;;;;;;5062630;28;20029;-68
2023/09/29 08:13:27;;;;;;;1.17;0.90;;;21.20;80.30;;;;;;5062106;28;20079;-68
2023/09/29 08:15:53;;;;;;;0.90;0.82;;;21.30;80.20;;;;;;5065274;28;20045;-66
2023/09/29 08:18:19;;;;;;;0.98;0.80;;;21.30;80.10;;;;;;5056584;28;20049;-66
2023/09/29 08:20:45;;;;;;;1.33;1.23;;;21.40;80.10;;;;;;5065552;28;20483;-66
2023/09/29 08:23:11;;;;;;;1.20;1.05;;;21.40;80.10;;;;;;5066703;28;20051;-66
2023/09/29 08:25:38;;;;;;;1.30;1.05;;;21.50;80.00;;;;;;5063002;28;20498;-66
2023/09/29 08:28:04;;;;;;;0.80;0.80;;;21.50;79.90;;;;;;5058884;28;20032;-66
2023/09/29 08:30:30;;;;;;;0.65;0.65;;;21.60;79.80;;;;;;5062221;28;20032;-66
2023/09/29 08:32:56;;;;;;;0.70;0.70;;;21.60;79.70;;;;;;5060899;28;20036;-66
2023/09/29 08:35:22;;;;;;;2.40;1.10;;;21.70;79.90;;;;;;5066422;28;20475;-66
2023/09/29 08:37:49;;;;;;;1.27;1.08;;;21.70;79.90;;;;;;5062887;28;20031;-66
2023/09/29 08:40:19;;;;;;;1.92;1.08;;;21.70;79.80;;;;;;5065488;28;20493;-65
2023/09/29 08:42:51;;;;;;;1.15;1.02;;;21.80;79.60;;;;;;5055312;28;20033;-66
2023/09/29 08:45:20;;;;;;;;;;;21.90;79.60;;;;;;5059871;28;20441;-66
2023/09/29 08:47:52;;;;;;;3.30;0.93;;;21.90;79.40;;;;;;5061476;28;20042;-66
2023/09/29 08:50:21;;;;;;;1.10;0.95;;;22.00;79.30;;;;;;5059730;28;20483;-66
2023/09/29 08:52:49;;;;;;;2.55;1.83;;;22.10;79.10;;;;;;5059561;28;20025;-67
2023/09/29 08:55:16;;;;;;;2.78;1.15;;;22.20;78.40;;;;;;5063109;28;20763;-66
2023/09/29 08:57:43;;;;;;;1.15;1.05;;;22.30;78.30;;;;;;5062488;28;20016;-66
2023/09/29 09:00:13;;;;;;;0.82;0.82;;;22.40;78.20;;;;;;5061796;28;20047;-66
2023/09/29 09:02:44;;;;;;;2.28;0.90;;;22.50;78.10;;;;;;5057513;28;20025;-66
2023/09/29 09:05:11;;;;;;;0.75;0.70;;;22.60;77.60;;;;;;5059103;28;20020;-66
2023/09/29 09:07:38;;;;;;;1.42;0.88;;;22.60;77.20;;;;;;5060032;28;20037;-66
2023/09/29 09:10:04;;;;;;;1.70;0.80;;;22.70;77.30;;;;;;5063097;28;20480;-66
2023/09/29 09:12:35;;;;;;;1.00;0.90;;;22.80;77.10;;;;;;5056184;28;20049;-66
2023/09/29 09:15:05;;;;;;;1.08;1.00;;;22.90;76.90;;;;;;5059126;28;20040;-66
2023/09/29 09:17:31;;;;;;;2.42;1.48;;;22.90;76.70;;;;;;5061359;28;20059;-66
2023/09/29 09:19:57;;;;;;;1.50;1.20;;;23.00;76.50;;;;;;5056910;28;20017;-66
2023/09/29 09:22:26;;;;;;;2.58;0.85;;;23.10;76.30;;;;;;5070453;28;20483;-66
2023/09/29 09:24:59;;;;;;;1.50;1.25;;;23.20;76.10;;;;;;5065579;28;20379;-66
2023/09/29 09:27:25;;;;;;;1.73;1.10;;;23.30;75.80;;;;;;5064275;28;20071;-66
2023/09/29 09:29:51;;;;;;;1.92;1.23;;;23.30;75.60;;;;;;5065676;28;20036;-67
2023/09/29 09:32:26;;;;;;;2.25;1.17;;;23.30;75.50;;;;;;5065835;28;20063;-66
2023/09/29 09:34:52;;;;;;;1.85;1.08;;;23.30;75.10;;;;;;5064072;28;20410;-66
2023/09/29 09:37:26;;;;;;;2.05;0.90;;;23.30;75.30;;;;;;5067530;28;20032;-66
2023/09/29 09:39:54;;;;;;;1.70;1.10;;;23.20;75.50;;;;;;5047149;28;20025;-66
2023/09/29 09:42:24;;;;;;;1.40;1.10;;;23.10;75.80;;;;;;5069256;28;20045;-63
2023/09/29 09:44:50;;;;;;;2.25;1.00;;;23.00;76.00;;;;;;5069930;28;20021;-66
2023/09/29 09:47:18;;;;;;;1.27;0.95;;;23.00;75.90;;;;;;5065983;28;20548;-66
2023/09/29 09:49:50;;;;;;;1.75;1.20;;;23.00;76.10;;;;;;5068098;28;20257;-66
2023/09/29 09:52:24;;;;;;;1.65;1.30;;;23.10;75.90;;;;;;5065149;28;20039;-66
2023/09/29 09:54:57;;;;;;;2.85;1.75;;;23.20;75.40;;;;;;5062859;28;20033;-66
2023/09/29 09:57:35;;;;;;;6.30;1.60;;;23.40;75.10;;;;;;5063180;28;20021;-66
2023/09/29 10:00:10;;;;;;;2.35;1.30;;;23.50;75.20;;;;;;5066165;28;20016;-66
2023/09/29 10:02:48;;;;;;;1.25;0.80;;;23.50;74.50;;;;;;5066109;28;20035;-66
2023/09/29 10:05:16;;;;;;;1.58;0.95;;;23.40;74.80;;;;;;5066762;28;20052;-62
2023/09/29 10:08:05;;;;;;;1.17;1.08;;;23.30;74.70;;;;;;5065560;28;20158;-62
2023/09/29 10:10:35;;;;;;;1.45;1.02;;;23.30;74.90;;;;;;5064083;28;20112;-66
2023/09/29 10:13:06;;;;;;;4.07;1.00;;;23.30;75.00;;;;;;5061068;28;20029;-66
2023/09/29 10:15:32;;;;;;;6.63;1.30;;;23.40;74.80;;;;;;5069314;28;20037;-66
2023/09/29 10:18:17;;;;;;;4.30;1.52;;;23.50;74.40;;;;;;5062967;28;20047;-66
2023/09/29 10:20:43;;;;;;;1.83;1.15;;;23.70;73.60;;;;;;5066920;28;20078;-66
2023/09/29 10:23:15;;;;;;;1.10;0.90;;;23.80;73.60;;;;;;5068895;28;20059;-66
2023/09/29 10:25:59;;;;;;;2.10;1.23;;;23.80;73.60;;;;;;5066818;28;20031;-66
2023/09/29 10:28:36;;;;;;;2.65;1.10;;;23.80;73.60;;;;;;5051497;28;20436;-66
2023/09/29 10:31:18;;;;;;;1.55;1.45;;;23.70;73.30;;;;;;5067990;28;20559;-66
2023/09/29 10:33:51;;;;;;;;;;;23.60;73.40;;;;;;5065188;28;20067;-66
2023/09/29 10:36:18;;;;;;;2.40;1.23;;;23.50;73.50;;;;;;5066351;28;19912;-65
2023/09/29 10:38:44;;;;;;;1.88;1.00;;;23.30;73.70;;;;;;5068849;28;20539;-66
2023/09/29 10:41:10;;;;;;;1.40;1.30;;;23.20;74.10;;;;;;5061969;28;20127;-66
2023/09/29 10:43:36;;;;;;;4.32;1.63;;;23.10;74.40;;;;;;5065009;28;20062;-66
2023/09/29 10:46:13;;;;;;;2.33;1.17;;;23.10;74.70;;;;;;5031231;28;20032;-62
2023/09/29 10:48:49;;;;;;;1.40;1.30;;;23.20;74.70;;;;;;5064054;28;20044;-63
2023/09/29 10:51:27;;;;;;;1.27;0.90;;;23.30;74.50;;;;;;5065290;28;20475;-66
2023/09/29 10:53:53;;;;;;;1.77;1.35;;;23.30;74.40;;;;;;5068597;28;20036;-67
2023/09/29 10:56:24;;;;;;;1.00;0.70;;;23.10;74.80;;;;;;5045750;28;20150;-66
2023/09/29 10:58:54;;;;;;;1.08;0.88;;;23.10;75.10;;;;;;5068463;28;20036;-67
2023/09/29 11:01:27;;;;;;;1.55;0.88;;;23.20;75.50;;;;;;5063054;28;20025;-67
2023/09/29 11:03:55;;;;;;;2.15;0.80;;;23.20;75.40;;;;;;5049481;28;20463;-67
2023/09/29 11:06:21;;;;;;;1.08;0.98;;;23.30;75.40;;;;;;5052579;28;20406;-67
2023/09/29 11:08:58;;;;;;;1.05;0.95;;;23.20;75.70;;;;;;5069125;28;20028;-67
2023/09/29 11:11:33;;;;;;;1.45;1.05;;;23.10;75.90;;;;;;5060252;28;21041;-67
2023/09/29 11:13:59;;;;;;;1.40;1.00;;;23.10;76.00;;;;;;5063123;28;20021;-67
2023/09/29 11:16:27;;;;;;;1.10;1.00;;;23.00;76.90;;;;;;5050713;28;20032;-66
2023/09/29 11:18:56;;;;;;;3.58;1.80;;;22.90;76.40;;;;;;5067455;28;20048;-67
2023/09/29 11:21:33;;;;;;;4.82;1.20;;;22.90;76.70;;;;;;5070490;28;20040;-67
2023/09/29 11:24:08;;;;;;;1.10;1.00;;;22.80;76.90;;;;;;5065837;28;20464;-63
2023/09/29 11:26:37;;;;;;;1.38;1.27;;;22.80;77.10;;;;;;5066447;28;20094;-63
2023/09/29 11:29:03;;;;;;;1.40;1.15;;;22.80;77.20;;;;;;5064918;28;20025;-63
2023/09/29 11:31:28;;;;;;;2.25;1.30;;;22.70;77.20;;;;;;5062854;28;20040;-63
2023/09/29 11:33:54;;;;;;;1.50;1.10;;;22.70;77.30;;;;;;5068775;28;20036;-63
2023/09/29 11:36:23;;;;;;;0.80;0.80;;;22.70;77.40;;;;;;5066066;28;20036;-64
2023/09/29 11:38:52;;;;;;;2.58;1.20;;;22.80;77.40;;;;;;5063259;28;20388;-63
2023/09/29 11:41:17;;;;;;;1.58;1.45;;;22.90;77.10;;;;;;5050890;28;20835;-63
2023/09/29 11:43:45;;;;;;;2.35;1.55;;;23.00;77.20;;;;;;5045318;28;20036;-63
2023/09/29 11:46:14;;;;;;;1.95;1.15;;;22.90;77.70;;;;;;5063289;28;20029;-66
2023/09/29 11:48:40;;;;;;;1.40;0.82;;;22.80;78.10;;;;;;5044809;28;20068;-67
2023/09/29 11:51:08;;;;;;;1.27;1.17;;;22.70;78.60;;;;;;5064422;28;20036;-67
2023/09/29 11:53:34;;;;;;;1.00;0.90;;;22.60;78.90;;;;;;5055696;28;20372;-66
2023/09/29 11:56:00;;;;;;;2.50;1.05;;;22.60;79.30;;;;;;5060377;28;20021;-66
2023/09/29 11:58:26;;;;;;;1.33;1.05;;;22.60;79.20;;;;;;5060702;28;20032;-66
2023/09/29 12:00:52;;;;;;;2.97;1.27;;;22.60;79.40;;;;;;5064484;28;20510;-67
2023/09/29 12:03:21;;;;;;;1.27;1.00;;;22.60;79.70;;;;;;5063998;28;20201;-67
2023/09/29 12:05:50;;;;;;;1.65;1.52;;;22.50;79.90;;;;;;5063909;28;20063;-66
2023/09/29 12:08:16;;;;;;;1.30;1.20;;;22.50;80.00;;;;;;5063643;28;20097;-66
2023/09/29 12:10:43;;;;;;;1.50;1.13;;;22.50;80.00;;;;;;5062169;28;20035;-68
2023/09/29 12:13:10;;;;;;;2.53;1.60;;;22.40;80.10;;;;;;5063271;28;20454;-68
2023/09/29 12:15:36;;;;;;;1.65;1.45;;;22.30;80.70;;;;;;5067378;28;20104;-68
2023/09/29 12:18:02;;;;;;;0.82;0.82;;;22.20;81.00;;;;;;5064814;28;20124;-68
2023/09/29 12:20:28;;;;;;;0.80;0.80;;;22.20;81.40;;;;;;5063093;28;20395;-69
2023/09/29 12:22:55;;;;;;;2.58;1.08;;;22.10;81.50;;;;;;5048972;28;20439;-68
2023/09/29 12:25:21;;;;;;;1.95;1.63;;;22.10;81.60;;;;;;5060216;28;20021;-69
2023/09/29 12:27:50;;;;;;;1.27;0.93;;;22.10;81.90;;;;;;5058272;28;20029;-69
2023/09/29 12:30:17;;;;;;;1.70;1.30;;;22.10;81.90;;;;;;5065815;28;20027;-69
2023/09/29 12:32:44;;;;;;;1.70;1.02;;;22.10;82.30;;;;;;5065476;28;20032;-65
2023/09/29 12:35:12;;;;;;;0.80;0.80;;;22.10;82.20;;;;;;5066110;28;20097;-68
2023/09/29 12:37:45;;;;;;;2.50;1.15;;;22.20;82.20;;;;;;5065217;28;20029;-68
2023/09/29 12:40:12;;;;;;;1.10;1.00;;;22.20;82.80;;;;;;5063412;28;20036;-66
2023/09/29 12:42:51;;;;;;;1.63;0.95;;;22.20;82.60;;;;;;5063686;28;20033;-67
2023/09/29 12:45:20;;;;;;;0.65;0.65;;;22.20;82.80;;;;;;5064159;28;20032;-67
2023/09/29 12:47:47;;;;;;;2.95;0.90;;;22.10;82.70;;;;;;5056782;28;20024;-67
2023/09/29 12:50:12;;;;;;;1.38;1.25;;;22.10;82.50;;;;;;5066516;28;20032;-67